Tiempo atmosférico en la estación meteorológica de Vigo Aeropuerto, Pontevedra (261 m.)



Fecha
DESCASC
Temp. máxima en grados centígrados (hora)
DESCASC
Temp. mínima en grados centígrados (hora)
DESCASC
Temp. media en grados centígrados
DESCASC
Racha de viento máxima en m/sg (hora)
DESCASC
Velocidad máxima media en intervalos de 10 minutos(hora)
DESCASC
Precipitaciones diarias en mm
DESCASC
Precipitaciones de 00:00 a 06:00 en mm
DESCASC
Precipitaciones de 06:00 a 12:00 en mm
DESCASC
Precipitaciones de 12:00 a 18:00 en mm
DESCASC
Precipitaciones de 18:00 a 24:00 en mm
DESCASC
22-01-2020 15.6 (14:50) 4.3 (05:00) 10 12.5 (11:40) 7.5 (11:40) 0 0 0 0 0
21-01-2020 12.3 (14:00) 2.8 (02:10) 7.6 12.78 (14:20) 8.61 (14:30) 0 0 0 0 0
20-01-2020 11.1 (14:40) 4.2 (09:10) 7.7 18.61 (11:40) 9.72 (12:50) 0 0 0 0 0
19-01-2020 12.8 (13:50) 5.4 (00:00) 9.1 12.78 (14:10) 7.22 (14:40) 0 0 0 0 0
18-01-2020 12.9 (12:10) 7.8 (00:00) 10.3 13.89 (14:40) 7.78 (12:10) 9.9 1.1 0.2 4.8 3.8
17-01-2020 11.2 (15:50) 6.2 (00:00) 8.7 16.11 (00:10) 6.39 (00:10) 4.1 3.1 1 0 0
16-01-2020 14 (11:30) 8.3 (00:00) 11.2 20.56 (12:00) 12.5 (12:00) 39.2 5.6 1.4 28.8 3.4
15-01-2020 14.5 (16:30) 8.7 (00:00) 11.6 21.67 (00:30) 13.89 (00:50) 16.8 9.9 6.8 0 0.1
14-01-2020 13.4 (23:59) 8.8 (00:00) 11.1 19.72 (23:59) 11.67 (23:59) 0.1 0 0 0 0.1
13-01-2020 9.8 (15:50) 4.8 (00:00) 7.3 13.89 (18:10) 9.17 (18:40) 0 0 0 0 0
12-01-2020 12 (16:30) 1.1 (09:30) 6.6 5.83 (10:20) 4.44 (10:20) 0 0 0 0 0
11-01-2020 13.8 (16:50) 2.5 (00:00) 8.2 6.11 (09:40) 3.89 (09:20) 0 0 0 0 0
10-01-2020 12.2 (15:50) 3.8 (00:00) 8 6.67 (16:00) 4.17 (16:00) 0 0 0 0 0
09-01-2020 12.8 (14:40) 6.6 (00:00) 9.7 13.89 (12:50) 8.33 (12:50) 1.5 0 0.6 0.9 0
08-01-2020 12.3 (13:10) 4.7 (00:00) 8.5 5.83 (09:40) 4.17 (09:40) 0 0 0 0 0
07-01-2020 11.2 (16:50) 0.2 (00:00) 5.7 7.78 (21:50) 4.72 (10:30) 0 0 0 0 0
06-01-2020 9.7 (16:50) 0.3 (00:00) 5 6.67 (08:50) 4.17 (08:00) 0 0 0 0 0
05-01-2020 11.1 (17:00) 2.2 (00:00) 6.7 5.83 (01:50) 3.89 (10:30) 0 0 0 0 0
04-01-2020 11.8 (15:00) 4.8 (00:00) 8.3 6.11 (07:30) 3.89 (07:30) 0 0 0 0 0
03-01-2020 11.9 (16:00) 8.8 (00:00) 10.3 7.78 (06:50) 4.72 (08:20) 6.3 0 5.8 0.5 0
02-01-2020 9.3 (23:50) 0.3 (00:00) 4.8 7.78 (19:50) 5.28 (10:10) 0 0 0 0 0
01-01-2020 10.3 (16:50) -3.3 (-00:0) 3.5 12.78 (05:20) 5 (09:40) 0 0 0 0 0
31-12-2019 13.8 (16:10) 5.2 (00:00) 9.5 5 (20:50) 2.78 (20:00) 0 0 0 0 0
30-12-2019 14.8 (15:00) 0.9 (00:00) 7.9 6.67 (15:30) 4.72 (15:20) 0 0 0 0 0
29-12-2019 15.9 (17:20) 6.1 (00:00) 11 7.22 (04:40) 5.28 (04:40) 0 0 0 0 0
28-12-2019 13.9 (16:50) 4.1 (00:00) 9 7.78 (11:30) 5.83 (11:30) 0 0 0 0 0
27-12-2019 12.1 (16:40) 2.8 (00:00) 7.5 7.22 (08:10) 4.72 (06:50) 0 0 0 0 0
26-12-2019 -- (--) -- (--) -- 5 (17:10) -- (--) 0 0 0 0 0
25-12-2019 19.4 (15:10) 10.7 (00:00) 15 15.28 (20:20) 9.72 (20:20) 2.9 0 0 0 2.9

Gráficas

Temp. máximas Temp. mínimas Temp. medias Precipitaciones Rachas de viento máximas Velocidades máximas media en intervalos de 10 minutos

Datos horarios

Fecha y hora oficial Temperatura (ºC) Velocidad del viento (km/h) Dirección del viento Racha (km/h) Dirección de racha Precipitación (mm) Presión (hPa) Tendencia (hPa) Humedad (%)
2020-01-23 23:00:00 10.1 10 Nordeste 15 Nordeste 0 986.5 0.7 68
2020-01-23 22:00:00 8.6 6 Norte 9 Norte 0 986.5 1.1 79
2020-01-23 21:00:00 9.1 2 Sudoeste 11 Noroeste 0 986.3 1.2 73
2020-01-23 20:00:00 8.1 7 Oeste 15 Oeste 0 985.8 1 77
2020-01-23 19:00:00 9.7 10 Norte 13 Norte 0 985.4 0.5 68
2020-01-23 18:00:00 10.5 9 Norte 11 Norte 0 985.1 -0.4 71
2020-01-23 17:00:00 12.6 2 Oeste 8 Este 0 984.8 -1.4 59
2020-01-23 16:00:00 11.8 3 Nordeste 17 Sudoeste 0 984.9 -1.3 64
2020-01-23 15:00:00 8.9 5 Sur 24 Sur 0 985.5 -1 76
2020-01-23 14:00:00 9.5 12 Sudoeste 21 Sur 0 986.2 -0.1 68
2020-01-23 13:00:00 8 16 Sur 30 Sur 0 986.2 0.4 74
2020-01-23 12:00:00 6.9 22 Sur 28 Sur 0 986.5 1.3 81
2020-01-23 11:00:00 8.2 10 Sur 18 Sur 0 986.3 1.5 70
2020-01-23 10:00:00 7.8 7 Nordeste 17 Este 0 985.8 1.2 71
2020-01-23 09:00:00 8.1 9 Este 24 Sudeste 0 985.2 0.4 68
2020-01-23 08:00:00 8.8 8 Norte 22 Norte 0 984.8 -0.2 64
2020-01-23 07:00:00 8.5 8 Norte 22 Este 0 984.6 -0.6 65
2020-01-23 06:00:00 8.6 14 Este 32 Este 0 984.8 -0.8 66
2020-01-23 05:00:00 8.5 9 Norte 15 Noroeste 0 985 -1 68
2020-01-23 04:00:00 8.9 8 Noroeste 15 Oeste 0 985.2 -1.3 69
2020-01-23 03:00:00 8.7 5 Norte 11 Norte 0 985.6 -0.9 76
2020-01-23 02:00:00 9 6 Nordeste 9 Nordeste 0 986 -0.5 74
2020-01-23 01:00:00 8.7 3 Este 15 Norte 0 986.5 -0.1 78
2020-01-23 00:00:00 9 5 Nordeste 22 Norte 0 986.5 -0.1 75
2020-01-22 23:00:00 9.3 14 Norte 24 Norte 0 986.5 -0.4 73
2020-01-22 22:00:00 9.5 14 Norte 24 Norte 0 986.6 -0.1 71
2020-01-22 21:00:00 10.1 13 Norte 33 Norte 0 986.6 0.1 67
2020-01-22 20:00:00 10.5 24 Norte 33 Norte 0 986.9 0 68
2020-01-22 19:00:00 11.3 18 Nordeste 30 Nordeste 0 986.7 -0.1 65
2020-01-22 18:00:00 13 12 Este 33 Este 0 986.5 -0.7 56
2020-01-22 17:00:00 13.2 9 Este 37 Nordeste 0 986.9 -1.1 58
2020-01-22 16:00:00 14.3 17 Nordeste 28 Nordeste 0 986.8 -2.2 57
2020-01-22 15:00:00 14.6 17 Nordeste 35 Nordeste 0 987.2 -2.2 51
2020-01-22 14:00:00 15.1 20 Nordeste 39 Nordeste 0 988 -1.6 52
2020-01-22 13:00:00 14.8 19 Nordeste 35 Nordeste 0 989 -0.5 55
2020-01-22 12:00:00 13.8 22 Este 45 Este 0 989.4 0 59
2020-01-22 11:00:00 10.8 18 Este 33 Este 0 989.6 -0.1 67
2020-01-22 10:00:00 10.1 12 Nordeste 32 Nordeste 0 989.5 0 66
2020-01-22 09:00:00 8.8 6 Nordeste 33 Norte 0 989.4 0.1 68
2020-01-22 08:00:00 6.2 4 Sudeste 11 Nordeste 0 989.7 0 75
2020-01-22 07:00:00 6.3 7 Este 13 Este 0 989.5 -0.4 75
2020-01-22 06:00:00 6.8 8 Nordeste 15 Nordeste 0 989.3 -0.7 70
2020-01-22 05:00:00 4.3 4 Sudoeste 8 Oeste 0 989.7 -0.7 84
2020-01-22 04:00:00 4.6 0 Calma 8 Sudeste 0 989.9 -0.4 83
2020-01-22 03:00:00 5.2 2 Este 8 Este 0 990 -0.3 78
2020-01-22 02:00:00 6.5 0 Calma 22 Nordeste 0 990.4 0 72
2020-01-22 01:00:00 7.1 12 Nordeste 30 Norte 0 990.3 -0.3 69
2020-01-22 00:00:00 7.4 19 Nordeste 33 Norte 0 990.3 -0.2 67
2020-01-21 23:00:00 7.5 19 Nordeste 41 Norte 0 990.4 0.1 67
2020-01-21 22:00:00 7.7 23 Norte 39 Norte 0 990.6 0.6 67
2020-01-21 21:00:00 7.5 13 Norte 30 Norte 0 990.5 0.8 68
2020-01-21 20:00:00 8.1 18 Nordeste 42 Este 0 990.3 0.1 65
2020-01-21 19:00:00 8.7 27 Nordeste 46 Este 0 990 -0.2 63
2020-01-21 18:00:00 9.2 18 Nordeste 39 Nordeste 0 989.7 -1.4 61
2020-01-21 17:00:00 10 14 Nordeste 37 Nordeste 0 990.2 -2.1 59
2020-01-21 16:00:00 11.1 25 Nordeste 42 Nordeste 0 990.2 -3.1 55
2020-01-21 15:00:00 10.9 24 Nordeste 46 Nordeste 0 991.1 -3.1 54
2020-01-21 14:00:00 12.2 21 Nordeste 45 Nordeste 0 992.3 -2.6 51
2020-01-21 13:00:00 10.7 21 Norte 42 Norte 0 993.3 -1.6 54
2020-01-21 12:00:00 10.1 11 Nordeste 26 Nordeste 0 994.2 -0.5 57
2020-01-21 11:00:00 8 11 Norte 28 Norte 0 994.9 0.3 61
2020-01-21 10:00:00 6.1 12 Norte 28 Norte 0 994.9 0 67
2020-01-21 09:00:00 4.5 17 Nordeste 32 Nordeste 0 994.7 -0.2 70
2020-01-21 08:00:00 4.5 10 Nordeste 22 Norte 0 994.6 -0.7 66
2020-01-21 07:00:00 4.4 8 Este 17 Nordeste 0 994.9 -0.9 65
2020-01-21 06:00:00 4.7 13 Norte 24 Norte 0 994.9 -1.1 62
2020-01-21 05:00:00 4.1 12 Norte 26 Norte 0 995.3 -1 64
2020-01-21 04:00:00 3.5 6 Nordeste 18 Norte 0 995.8 -0.8 68
2020-01-21 03:00:00 4 4 Nordeste 18 Norte 0 996 -0.7 63
2020-01-21 02:00:00 3.8 3 Norte 24 Norte 0 996.3 -0.1 65
2020-01-21 01:00:00 4.4 12 Norte 21 Norte 0 996.6 0.4 62
2020-01-21 00:00:00 4.9 5 Nordeste 17 Norte 0 996.7 1 58
2020-01-20 23:00:00 5.4 8 Noroeste 22 Este 0 996.4 0.4 56
2020-01-20 22:00:00 6.5 18 Norte 52 Nordeste 0 996.2 0.9 49
2020-01-20 21:00:00 6.6 30 Nordeste 50 Nordeste 0 995.7 0.4 52
2020-01-20 20:00:00 6.2 13 Nordeste 30 Nordeste 0 996 1 56
2020-01-20 19:00:00 7.7 21 Norte 41 Nordeste 0 995.3 -0.2 48
2020-01-20 18:00:00 8.6 12 Norte 48 Nordeste 0 995.3 -0.9 44
2020-01-20 17:00:00 9.4 27 Nordeste 55 Nordeste 0 995 -2.4 45
2020-01-20 16:00:00 10.2 20 Nordeste 52 Este 0 995.5 -3 39
2020-01-20 15:00:00 10.9 23 Este 63 Nordeste 0 996.2 -3.3 37
2020-01-20 14:00:00 10.7 23 Este 61 Nordeste 0 997.4 -2.4 41
2020-01-20 13:00:00 9.7 30 Nordeste 63 Norte 0 998.5 -1.8 43
2020-01-20 12:00:00 8.8 33 Nordeste 67 Nordeste 0 999.5 -0.9 48
2020-01-20 11:00:00 7.2 26 Nordeste 45 Nordeste 0 999.8 -0.1 57
2020-01-20 10:00:00 5.5 20 Nordeste 32 Nordeste 0 1000.3 0.4 65
2020-01-20 09:00:00 4.4 14 Nordeste 32 Norte 0 1000.4 0 70
2020-01-20 08:00:00 5.2 21 Norte 39 Norte 0 999.9 -0.9 65
2020-01-20 07:00:00 5.4 14 Norte 24 Norte 0 999.9 -1.6 61
2020-01-20 06:00:00 5.9 12 Norte 22 Norte 0 1000.4 -1.6 57
2020-01-20 05:00:00 6.7 14 Nordeste 22 Nordeste 0 1000.8 -2.1 50
2020-01-20 04:00:00 5.7 10 Norte 24 Norte 0 1001.5 -1.5 59
2020-01-20 03:00:00 5.7 13 Norte 26 Norte 0 1002 -1.4 59
2020-01-20 02:00:00 5.6 5 Sudeste 42 Norte 0 1002.9 -0.3 60
2020-01-20 01:00:00 5.8 19 Norte 32 Nordeste 0 1003 0.2 59
2020-01-20 00:00:00 5.7 6 Norte 32 Norte 0 1003.4 1 58
2020-01-19 23:00:00 5.9 19 Norte 33 Norte 0 1003.2 1.4 59
2020-01-19 22:00:00 6.4 18 Norte 35 Norte 0 1002.8 1.6 59
2020-01-19 21:00:00 7.1 14 Norte 37 Norte 0 1002.4 1.4 56
2020-01-19 20:00:00 7.9 23 Nordeste 37 Norte 0 1001.8 1.2 56
2020-01-19 19:00:00 8.4 19 Norte 35 Norte 0 1001.2 1 58
2020-01-19 18:00:00 10 21 Norte 33 Norte 0 1001 0.6 54
2020-01-19 17:00:00 11.5 17 Norte 35 Nordeste 0 1000.6 -0.1 48
2020-01-19 16:00:00 12.4 15 Nordeste 37 Nordeste 0 1000.2 -0.7 44
2020-01-19 15:00:00 12.3 22 Nordeste 46 Nordeste 0 1000.4 -0.8 47
2020-01-19 14:00:00 12.4 24 Nordeste 41 Norte 0 1000.7 -0.2 48
2020-01-19 13:00:00 12 20 Norte 35 Norte 0 1000.9 1 49
2020-01-19 12:00:00 10.8 14 Norte 28 Nordeste 0 1001.2 2.5 54
2020-01-19 11:00:00 10.1 11 Nordeste 32 Norte 0 1000.9 3.2 64
2020-01-19 10:00:00 9 15 Nordeste 28 Norte 0 999.9 3.1 71
2020-01-19 09:00:00 7.9 12 Nordeste 39 Nordeste 0 998.7 2.4 81
2020-01-19 08:00:00 8.7 20 Nordeste 39 Norte 0 997.7 1.9 78
2020-01-19 07:00:00 8.6 13 Nordeste 26 Nordeste 0 996.8 1.1 98
2020-01-19 06:00:00 8.9 6 Este 18 Norte 0 996.3 0.8 99
2020-01-19 05:00:00 8.8 7 Nordeste 33 Norte 0 995.8 0.7 98
2020-01-19 04:00:00 8.3 9 Norte 21 Norte 0 995.7 0.8 100
2020-01-19 03:00:00 8 6 Este 21 Norte 0 995.5 1.7 100
2020-01-19 02:00:00 8.3 11 Norte 32 Norte 0 995.1 2 100
2020-01-19 01:00:00 9.1 19 Norte 33 Norte 0 994.9 3 100
2020-01-19 00:00:00 9.8 16 Noroeste 41 Noroeste 0 993.8 1.6 98
2020-01-18 23:00:00 9.9 23 Noroeste 39 Noroeste 0 993.1 1.3 96
2020-01-18 22:00:00 10.2 10 Noroeste 22 Oeste 1 991.9 0.1 100
2020-01-18 21:00:00 9.8 9 Noroeste 28 Oeste 0.9 992.2 0.3 100
2020-01-18 20:00:00 9.6 12 Oeste 24 Sudoeste 1.1 991.8 -0.1 100
2020-01-18 19:00:00 9.4 13 Oeste 48 Oeste 0.8 991.8 0.3 98
2020-01-18 18:00:00 9.8 16 Oeste 46 Oeste 0.7 991.9 0.6 97
2020-01-18 17:00:00 11.4 14 Oeste 35 Oeste 0 991.9 0.5 83
2020-01-18 16:00:00 11.8 15 Oeste 39 Noroeste 0.5 991.5 -0.7 80
2020-01-18 15:00:00 11.9 18 Oeste 50 Sudoeste 2.1 991.3 -0.9 98
2020-01-18 14:00:00 12.1 16 Oeste 37 Oeste 0.1 991.4 -0.3 99
2020-01-18 13:00:00 11.7 15 Oeste 45 Sudoeste 1.4 992.2 0.8 100
2020-01-18 12:00:00 12.4 19 Sudoeste 35 Oeste 0.2 992.2 0.7 100
2020-01-18 11:00:00 11.1 21 Sur 33 Sur 0 991.7 0.4 100
2020-01-18 10:00:00 10.5 23 Sur 33 Sur 0 991.4 0.5 100
2020-01-18 09:00:00 10.4 17 Sur 30 Sudeste 0 991.5 0.2 100
2020-01-18 08:00:00 10.2 14 Sur 32 Sur 0 991.3 -1 100
2020-01-18 07:00:00 10 18 Sur 46 Sur 0 990.9 -2.2 98
2020-01-18 06:00:00 9.9 22 Sur 42 Sur 0 991.3 -2.5 97
2020-01-18 05:00:00 9.3 15 Sur 35 Sudeste 0.2 992.3 -3.4 100
2020-01-18 04:00:00 9.4 15 Sur 33 Sur 0 993.1 -4.1 90
2020-01-18 03:00:00 8.8 23 Sur 41 Sur 0 993.8 -4 90
2020-01-18 02:00:00 8.3 17 Sur 32 Sur 0.6 995.7 -2.9 93
2020-01-18 01:00:00 8.7 13 Sur 21 Sur 0.3 997.2 -1.8 88
2020-01-18 00:00:00 8.9 6 Sur 13 Sur 0 997.8 -1.5 80
2020-01-17 23:00:00 8.7 8 Sudoeste 18 Sudoeste 0 998.6 -0.6 88
2020-01-17 22:00:00 9 9 Sudoeste 13 Sudoeste 0 999 -0.9 88
2020-01-17 21:00:00 9.1 9 Sudoeste 18 Sur 0 999.3 -0.8 89
2020-01-17 20:00:00 9.4 8 Sudeste 17 Sudeste 0 999.2 -0.6 79
2020-01-17 19:00:00 9.4 5 Sur 9 Sudeste 0 999.9 0.1 81
2020-01-17 18:00:00 9.7 3 Oeste 8 Este 0 1000.1 -0.2 91
2020-01-17 17:00:00 10.7 3 Nordeste 8 Nordeste 0 999.8 -0.9 80
2020-01-17 16:00:00 11.1 3 Sudeste 13 Sudoeste 0 999.8 -1.2 72
2020-01-17 15:00:00 11 7 Oeste 13 Oeste 0 1000.3 -0.6 64
2020-01-17 14:00:00 10.7 5 Sudeste 11 Sudeste 0 1000.7 0.3 86
2020-01-17 13:00:00 9.9 3 Sudoeste 11 Sur 0 1001 1.5 88
2020-01-17 12:00:00 9.9 7 Sur 11 Sudoeste 0 1000.9 2.1 86
2020-01-17 11:00:00 9.8 4 Sur 8 Sur 0 1000.4 2.5 91
2020-01-17 10:00:00 7.9 3 Este 9 Norte 0 999.5 2.4 99
2020-01-17 09:00:00 6.9 6 Noroeste 18 Noroeste 0 998.8 2.7 96
2020-01-17 08:00:00 8.5 7 Oeste 15 Oeste 0 997.9 2.8 78
2020-01-17 07:00:00 8.2 7 Oeste 42 Oeste 1 997.1 2.4 90
2020-01-17 06:00:00 8.6 6 Sudoeste 15 Oeste 0 996.1 2.2 95
2020-01-17 05:00:00 9 6 Sudoeste 15 Oeste 0 995.1 1.6 92
2020-01-17 04:00:00 9.2 8 Oeste 26 Sudoeste 0 994.7 1.9 95
2020-01-17 03:00:00 8 5 Sur 13 Sudoeste 0 993.9 1.5 100
2020-01-17 02:00:00 8.7 12 Sudoeste 33 Oeste 1.5 993.5 2.1 100
2020-01-17 01:00:00 8.5 5 Sudeste 58 Sudoeste 1.6 992.8 1.9 100
2020-01-17 00:00:00 10.8 17 Sudoeste 33 Oeste 0.6 992.4 1.9 99
2020-01-16 23:00:00 10.9 21 Sur 30 Sur 0 991.4 1.8 99
2020-01-16 22:00:00 10.8 18 Sur 26 Sur 0.5 990.9 2.4 100
2020-01-16 21:00:00 10.3 11 Sur 32 Oeste 0 990.5 3.9 100
2020-01-16 20:00:00 10.8 24 Sudoeste 50 Sudoeste 2.3 989.6 5.5 100
2020-01-16 19:00:00 9.9 12 Sudoeste 21 Sudoeste 0 988.5 4.1 100
2020-01-16 18:00:00 8.8 6 Sudeste 59 Oeste 14.3 986.6 1.7 100
2020-01-16 17:00:00 10.8 22 Sur 58 Sur 3.3 984.1 -1.8 100
2020-01-16 16:00:00 11.6 36 Sur 55 Sur 2.1 984.4 -2.6 100
2020-01-16 15:00:00 12.1 37 Sur 58 Sur 3 984.9 -2 100
2020-01-16 14:00:00 12.3 37 Sur 71 Sur 4.2 985.9 -1.1 100
2020-01-16 13:00:00 12.9 39 Sur 74 Sur 1.9 987 0.1 100
2020-01-16 12:00:00 13.6 45 Sur 74 Sur 0.2 986.9 0 96
2020-01-16 11:00:00 13.8 41 Sur 65 Sur 0.2 987 0.2 96
2020-01-16 10:00:00 13.7 30 Sur 58 Sur 0 986.9 0 100
2020-01-16 09:00:00 13.4 35 Sur 52 Sur 0 986.9 -0.4 100
2020-01-16 08:00:00 12.9 32 Sur 58 Sur 0.8 986.8 -0.7 100
2020-01-16 07:00:00 13.3 32 Sur 55 Sur 0.2 986.9 -0.9 100
2020-01-16 06:00:00 13.3 30 Sur 52 Sur 0.2 987.3 -0.4 100
2020-01-16 05:00:00 13.4 27 Sur 52 Sur 0 987.5 -0.3 100
2020-01-16 04:00:00 13.4 30 Sur 59 Sur 0.6 987.8 -0.9 100
2020-01-16 03:00:00 13.3 33 Sur 63 Sur 2.2 987.7 -1.7 100
2020-01-16 02:00:00 13.3 29 Sur 42 Sur 2.6 987.8 -1.3 100
2020-01-16 01:00:00 13.5 19 Sur 37 Sur 0 988.7 0.2 99
2020-01-16 00:00:00 13.4 23 Sur 54 Sudoeste 0 989.4 1.1 88
2020-01-15 23:00:00 13.8 37 Sur 63 Sudoeste 0 989.1 0.7 85
2020-01-15 22:00:00 13.4 21 Sudoeste 35 Sur 0 988.5 0.1 100
2020-01-15 21:00:00 13 23 Sudoeste 30 Sur 0.1 988.3 -0.3 100
2020-01-15 20:00:00 12.6 9 Sudoeste 21 Sur 0 988.4 -0.3 99
2020-01-15 19:00:00 12.4 15 Sur 30 Sur 0 988.4 -0.1 97
2020-01-15 18:00:00 13.2 23 Sur 32 Sur 0 988.6 -0.1 89
2020-01-15 17:00:00 13.9 20 Sudoeste 30 Sur 0 988.7 0.2 83
2020-01-15 16:00:00 13.9 19 Sur 30 Sur 0 988.5 -0.2 81
2020-01-15 15:00:00 13.8 15 Sur 32 Sur 0 988.7 -0.1 83
2020-01-15 14:00:00 13.1 19 Sur 32 Sur 0 988.5 0.2 86
2020-01-15 13:00:00 12 8 Sur 18 Sur 0 988.7 1.6 94
2020-01-15 12:00:00 11.2 8 Sur 13 Sur 0 988.8 2.4 100
2020-01-15 11:00:00 9.9 9 Sur 13 Sur 0 988.3 3.5 100
2020-01-15 10:00:00 8.8 5 Oeste 9 Oeste 0 987.1 5.2 100
2020-01-15 09:00:00 9.9 6 Oeste 15 Sudoeste 0 986.4 5 100
2020-01-15 08:00:00 10.4 7 Oeste 24 Sudoeste 1.7 984.8 3.3 100
2020-01-15 07:00:00 11.3 10 Sur 33 Sur 5.1 981.9 1 100
2020-01-15 06:00:00 11.7 17 Sur 50 Sudoeste 0.6 981.4 0.7 100
2020-01-15 05:00:00 12.5 28 Sudoeste 58 Sur 2.8 981.5 0 95
2020-01-15 04:00:00 12 33 Sur 63 Sudoeste 5.1 980.9 -1.3 100
2020-01-15 03:00:00 12.3 40 Sur 78 Sur 1 980.7 -1.2 100
2020-01-15 02:00:00 13.2 44 Sur 71 Sur 0 981.5 -0.5 91
2020-01-15 01:00:00 13 43 Sudoeste 78 Sudoeste 0.4 982.2 -0.5 94
2020-01-15 00:00:00 13.3 42 Sur 71 Sur 0 981.9 -1 91
2020-01-14 23:00:00 12.2 29 Sur 54 Sur 0.1 982 -1.5 100
2020-01-14 22:00:00 12.5 28 Sur 46 Sur 0 982.7 -1.1 96
2020-01-14 21:00:00 12.7 28 Sur 46 Sur 0 982.9 -0.9 87
2020-01-14 20:00:00 12.8 28 Sur 45 Sur 0 983.5 -0.1 82
2020-01-14 19:00:00 12.8 28 Sur 46 Sur 0 983.8 0.3 79
2020-01-14 18:00:00 12.9 27 Sur 46 Sur 0 983.8 -0.2 77
2020-01-14 17:00:00 13 26 Sur 52 Sur 0 983.6 -1.1 82
2020-01-14 16:00:00 12.8 27 Sur 50 Sur 0 983.5 -2.2 86
2020-01-14 15:00:00 12.4 21 Sur 46 Sur 0 984 -2.5 92
2020-01-14 14:00:00 12.9 23 Sur -- -- -- 984.7 -1.8 87
2020-01-14 13:00:00 12.8 32 Sur 46 Sur 0 985.7 -0.5 85
2020-01-14 12:00:00 12.1 30 Sur 48 Sur 0 986.5 0.4 92
2020-01-14 11:00:00 11.4 33 Sur 50 Sur 0 986.5 0.3 96
2020-01-14 10:00:00 10.9 34 Sur 50 Sur 0 986.2 0.3 97
2020-01-14 09:00:00 10.6 30 Sur 42 Sur 0 986.1 0.2 97
2020-01-14 08:00:00 10.7 23 Sur 48 Sur 0 986.2 0.1 95
2020-01-14 07:00:00 10.5 27 Sur 45 Sur 0 985.9 -0.7 95
2020-01-14 06:00:00 10.4 28 Sur 46 Sur 0 985.9 -0.9 96
2020-01-14 05:00:00 10.3 28 Sur 45 Sur 0 986.1 -1.4 97
2020-01-14 04:00:00 10 27 Sur 46 Sur 0 986.6 -1.4 99
2020-01-14 03:00:00 9.9 27 Sur 50 Sur 0 986.8 -1.5 100
2020-01-14 02:00:00 9.7 28 Sur 48 Sur 0 987.5 -0.6 100
2020-01-14 01:00:00 9.2 27 Sur 41 Sur 0 988 -0.5 100
2020-01-14 00:00:00 8.8 24 Sur 37 Sur 0 988.3 -0.2 100
2020-01-13 23:00:00 8.9 29 Sur 45 Sur 0 988.1 -1.5 100
2020-01-13 22:00:00 8.7 30 Sur 48 Sur 0 988.5 -0.7 100
2020-01-13 21:00:00 8.3 29 Sur 42 Sur 0 988.5 -0.8 100
2020-01-13 20:00:00 8.9 29 Sur 46 Sur 0 989.6 0.2 94
2020-01-13 19:00:00 8.9 28 Sur 50 Sur 0 989.2 -0.4 90
2020-01-13 18:00:00 9.1 29 Sur 48 Sur 0 989.3 -1.3 85
2020-01-13 17:00:00 9.2 26 Sur 42 Sur 0 989.4 -2.2 83
2020-01-13 16:00:00 9.7 23 Sur 39 Sur 0 989.6 -2.8 79
2020-01-13 15:00:00 9.3 27 Sur 48 Sur 0 990.6 -3.1 77
2020-01-13 14:00:00 9.6 31 Sur 46 Sudoeste 0 991.6 -2.1 74
2020-01-13 13:00:00 8.9 18 Sur 37 Sur 0 992.4 -1.2 81
2020-01-13 12:00:00 7.2 19 Sudoeste 28 Sur 0 993.7 0.1 89
2020-01-13 11:00:00 6.3 15 Sudoeste 26 Sur 0 993.7 0.5 90
2020-01-13 10:00:00 6 13 Sur 22 Sur 0 993.6 0.5 87
2020-01-13 09:00:00 5.8 15 Sur 22 Sur 0 993.6 -0.4 87
2020-01-13 08:00:00 5.6 15 Sudoeste 24 Sudoeste 0 993.2 -1.4 91
2020-01-13 07:00:00 5.8 15 Sur 22 Sudoeste 0 993.1 -1.8 93
2020-01-13 06:00:00 5.5 14 Sur 21 Sur 0 994 -1.3 99
2020-01-13 05:00:00 5.8 12 Sudoeste 18 Sudoeste 0 994.6 -1.6 98
2020-01-13 04:00:00 5.6 12 Sudoeste 21 Sudoeste 0 994.9 -2.4 100
2020-01-13 03:00:00 5.5 14 Sudoeste 18 Sudoeste 0 995.3 -2.7 100
2020-01-13 02:00:00 6.3 12 Sudoeste 17 Sudoeste 0 996.2 -2 100
2020-01-13 01:00:00 5.8 14 Sudoeste 18 Sudoeste 0 997.3 -1.2 100
2020-01-13 00:00:00 6.9 11 Sudoeste 21 Sudoeste 0 998 -0.8 100
2020-01-12 23:00:00 7.5 11 Sudoeste 15 Sur 0 998.2 -0.9 97
2020-01-12 22:00:00 7.3 9 Sudoeste 15 Oeste 0 998.5 -0.6 100
2020-01-12 21:00:00 6.6 4 Oeste 9 Oeste 0 998.8 -0.3 100
2020-01-12 20:00:00 7.6 4 Oeste 18 Oeste 0 999.1 0.1 100
2020-01-12 19:00:00 8.5 8 Oeste 13 Oeste 0 999.1 -0.1 96
2020-01-12 18:00:00 10.5 8 Oeste 11 Oeste 0 999.1 -0.4 83
2020-01-12 17:00:00 11.7 2 Sudeste 8 Sur 0 999 -1.4 68
2020-01-12 16:00:00 11.4 5 Sudeste 11 Sur 0 999.2 -1.9 65
2020-01-12 15:00:00 10.8 6 Sur 13 Sur 0 999.5 -2.2 63
2020-01-12 14:00:00 8.9 10 Sur 15 Sur 0 1000.4 -1.3 71
2020-01-12 13:00:00 7 12 Sur 15 Sudoeste 0 1001.1 -0.3 82
2020-01-12 12:00:00 5 13 Sudoeste 21 Sudoeste 0 1001.7 0.7 93
2020-01-12 11:00:00 3.2 16 Sudoeste 21 Sudoeste 0 1001.7 0.8 100
2020-01-12 10:00:00 2.2 14 Sudoeste 18 Sudoeste 0 1001.4 0.9 100
2020-01-12 09:00:00 2.6 11 Sudoeste 17 Sudoeste 0 1001 0.7 100
2020-01-12 08:00:00 2.8 10 Sudoeste 15 Sudoeste 0 1000.9 0.5 100
2020-01-12 07:00:00 2.9 9 Sudoeste 18 Sudoeste 0 1000.5 -0.1 100
2020-01-12 06:00:00 3.2 11 Sudoeste 15 Sudoeste 0 1000.3 -0.2 100
2020-01-12 05:00:00 4.1 5 Sudoeste 13 Oeste 0 1000.4 0 100
2020-01-12 04:00:00 4.4 8 Sudoeste 13 Oeste 0 1000.6 -0.2 100
2020-01-12 03:00:00 4.4 8 Sudoeste 15 Sudoeste 0 1000.5 -0.6 100
2020-01-12 02:00:00 4.8 12 Sudoeste 17 Sur 0 1000.4 -0.7 100
2020-01-12 01:00:00 4.9 13 Sudoeste 15 Sudoeste 0 1000.8 -0.2 100
2020-01-12 00:00:00 4.8 4 Sudoeste 11 Sudoeste 0 1001.1 0.2 97
2020-01-11 23:00:00 4.9 3 Oeste 5 Sudoeste 0 1001.1 0.3 90
2020-01-11 22:00:00 5.6 3 Noroeste 8 Noroeste 0 1001 0.3 85
2020-01-11 21:00:00 5.8 4 Noroeste 11 Oeste 0 1000.9 0.7 79
2020-01-11 20:00:00 6.5 10 Oeste 17 Oeste 0 1000.8 0.9 88
2020-01-11 19:00:00 8.7 12 Oeste 15 Oeste 0 1000.7 1 73
2020-01-11 18:00:00 11.3 4 Sudoeste 8 Sur 0 1000.2 0.2 71
2020-01-11 17:00:00 13.5 0 Calma 8 Este 0 999.9 -0.6 60
2020-01-11 16:00:00 13.2 5 Este 9 Este 0 999.7 -1.7 61
2020-01-11 15:00:00 12.1 5 Sudeste 17 Sur 0 1000 -2.1 59
2020-01-11 14:00:00 10.6 11 Sur 15 Sur 0 1000.5 -1.4 63
2020-01-11 13:00:00 8.4 9 Sudoeste 15 Sudoeste 0 1001.4 0 79
2020-01-11 12:00:00 5.8 10 Sudoeste 18 Sur 0 1002.1 0.8 93
2020-01-11 11:00:00 4.6 11 Sudoeste 17 Sudoeste 0 1001.9 0.5 98
2020-01-11 10:00:00 3.3 13 Sudoeste 22 Sur 0 1001.4 0.1 100
2020-01-11 09:00:00 3 11 Sudoeste 15 Sudoeste 0 1001.3 0.3 100
2020-01-11 08:00:00 3.2 10 Sudoeste 15 Sudoeste 0 1001.4 0.3 100
2020-01-11 07:00:00 3.5 11 Sudoeste 17 Sudoeste 0 1001.3 -0.1 100
2020-01-11 06:00:00 4 9 Sudoeste 15 Sur 0 1001 -0.4 100
2020-01-11 05:00:00 3.9 10 Sudoeste 18 Sur 0 1001.1 -0.4 100
2020-01-11 04:00:00 4.4 11 Sur 18 Sur 0 1001.4 -0.7 99
2020-01-11 03:00:00 4.7 11 Sudoeste 17 Sur 0 1001.4 -0.9 100
2020-01-11 02:00:00 5.3 11 Sudoeste 17 Sudoeste 0 1001.5 -0.6 94
2020-01-11 01:00:00 5.1 2 Sudoeste 8 Sudoeste 0 1002.1 0.1 92
2020-01-11 00:00:00 4.4 5 Oeste 8 Oeste 0 1002.3 0.7 95
2020-01-10 23:00:00 5.6 3 Norte 13 Noroeste 0 1002.1 0.7 87
2020-01-10 22:00:00 7.4 9 Norte 15 Norte 0 1002 0.7 74
2020-01-10 21:00:00 7.8 8 Norte 13 Norte 0 1001.6 0.6 77
2020-01-10 20:00:00 7.8 7 Norte 15 Oeste 0 1001.4 0.7 77
2020-01-10 19:00:00 7.5 4 Noroeste 13 Norte 0 1001.3 0.3 84
2020-01-10 18:00:00 10.2 11 Norte 15 Norte 0 1001 -0.3 65
2020-01-10 17:00:00 11 9 Nordeste 22 Este 0 1000.7 -1.1 61
2020-01-10 16:00:00 12.2 15 Este 24 Este 0 1001 -1.5 64
2020-01-10 15:00:00 11 8 Norte 13 Norte 0 1001.3 -2 71
2020-01-10 14:00:00 10.2 4 Este 13 Este 0 1001.8 0 83
2020-01-10 13:00:00 11 8 Este 11 Este 0 1002.5 0.3 81
2020-01-10 12:00:00 8.8 4 Este 15 Norte 0 1003.3 1.9 91
2020-01-10 11:00:00 8.5 9 Norte 17 Nordeste 0 1001.8 0.6 83
2020-01-10 10:00:00 6.4 9 Norte 13 Norte 0 1002.2 1.2 97
2020-01-10 09:00:00 5.3 8 Norte 11 Norte 0 1001.4 1 100
2020-01-10 08:00:00 5.2 8 Norte 13 Norte 0 1001.2 1.4 100
2020-01-10 07:00:00 4.5 5 Norte 9 Noroeste 0 1001 1 100
2020-01-10 06:00:00 4.4 3 Noroeste 8 Norte 0 1000.4 0.8 100
2020-01-10 05:00:00 5.3 5 Norte 5 Norte 0 999.8 0.2 100
2020-01-10 04:00:00 6.2 4 Norte 9 Noroeste 0 1000 0.2 100
2020-01-10 03:00:00 5.6 5 Norte 9 Norte 0 999.6 -0.3 100
2020-01-10 02:00:00 5.3 3 Noroeste 8 Noroeste 0 999.6 -0.2 100
2020-01-10 01:00:00 5.9 0 Calma 13 Norte 0 999.8 0.4 100
2020-01-10 00:00:00 8.3 7 Norte 13 Norte 0 999.9 1.3 90
2020-01-09 23:00:00 6.8 3 Oeste 9 Noroeste 0 999.8 2 98
2020-01-09 22:00:00 8.8 7 Norte 26 Noroeste 0 999.4 1.7 88
2020-01-09 21:00:00 8.1 6 Noroeste 18 Oeste 0 998.6 1.8 87
2020-01-09 20:00:00 7.8 7 Oeste 17 Este 0 997.8 1.3 85
2020-01-09 19:00:00 9.4 8 Noroeste 32 Noroeste 0 997.7 1.4 70
2020-01-09 18:00:00 10.1 17 Noroeste 28 Noroeste 0 996.8 1.2 79
2020-01-09 17:00:00 10.7 15 Noroeste 30 Noroeste 0 996.5 1.5 79
2020-01-09 16:00:00 11 15 Noroeste 41 Oeste 0 996.3 1.1 85
2020-01-09 15:00:00 12.3 14 Oeste 39 Sudoeste 0 995.6 0.6 85
2020-01-09 14:00:00 12.3 26 Oeste 45 Oeste 0 995 -0.2 100
2020-01-09 13:00:00 12.2 26 Sudoeste 50 Oeste 0.9 995.2 -0.1 100
2020-01-09 12:00:00 11.7 19 Sur 30 Sur 0 995 -0.1 100
2020-01-09 11:00:00 11.4 16 Sur 28 Sur 0.5 995.2 -0.1 100
2020-01-09 10:00:00 11.3 18 Sur 30 Sudoeste 0.1 995.3 -0.3 100
2020-01-09 09:00:00 10.9 15 Sur 24 Sur 0 995.1 -0.3 100
2020-01-09 08:00:00 10.6 14 Sur 24 Sur 0 995.3 -0.9 100
2020-01-09 07:00:00 10.6 11 Sur 18 Sur 0 995.6 -0.9 100
2020-01-09 06:00:00 10.2 14 Sur 22 Sur 0 995.4 -1.2 100
2020-01-09 05:00:00 9.9 8 Sudoeste 15 Sudoeste 0 996.2 -0.7 100
2020-01-09 04:00:00 9.9 11 Sudoeste 18 Sur 0 996.5 -0.9 100
2020-01-09 03:00:00 9.6 16 Sudoeste 22 Sur 0 996.6 -1.3 100
2020-01-09 02:00:00 9.3 13 Sudoeste 21 Sur 0 996.9 -1.1 100
2020-01-09 01:00:00 9.2 11 Sudoeste 15 Sudoeste 0 997.4 -0.8 100
2020-01-09 00:00:00 9.7 10 Sudoeste 18 Sur 0 997.9 -0.4 100
2020-01-08 23:00:00 9.3 12 Sudoeste 17 Sudoeste 0 998 -0.5 100
2020-01-08 22:00:00 9.7 12 Sudoeste 17 Sudoeste 0 998.2 -0.4 100
2020-01-08 21:00:00 9.4 10 Sudoeste 17 Sur 0 998.3 -0.2 100
2020-01-08 20:00:00 10 10 Sudoeste 15 Sudoeste 0 998.5 0.2 100
2020-01-08 19:00:00 10.2 11 Sur 17 Sudoeste 0 998.6 0.3 98
2020-01-08 18:00:00 10 9 Sudoeste 15 Sur 0 998.5 -0.1 100
2020-01-08 17:00:00 11.1 9 Sur 13 Sudoeste 0 998.3 -0.8 100
2020-01-08 16:00:00 10.2 8 Sudoeste 13 Sur 0 998.3 -1.6 100
2020-01-08 15:00:00 10.6 10 Sur 15 Sur 0 998.6 -1.9 83
2020-01-08 14:00:00 11 11 Sudoeste 21 Sudoeste 0 999.1 -1.4 73
2020-01-08 13:00:00 11.6 6 Sur 15 Sudoeste 0 999.9 -0.4 68
2020-01-08 12:00:00 8.5 10 Sudoeste 13 Sudoeste 0 1000.5 0.5 80
2020-01-08 11:00:00 6.7 12 Sudoeste 17 Sudoeste 0 1000.5 0.6 90
2020-01-08 10:00:00 5.4 13 Sudoeste 21 Sudoeste 0 1000.3 0.4 97
2020-01-08 09:00:00 4.8 14 Sudoeste 18 Sur 0 1000 -0.1 100
2020-01-08 08:00:00 5.9 10 Sudoeste 13 Sudoeste 0 999.9 -0.3 93
2020-01-08 07:00:00 6.3 10 Sudoeste 13 Sudoeste 0 999.9 -0.6 89
2020-01-08 06:00:00 6.4 10 Sudoeste 18 Sur 0 1000.1 -0.6 93
2020-01-08 05:00:00 5.4 13 Sudoeste 17 Sudoeste 0 1000.2 -0.8 98
2020-01-08 04:00:00 5.6 12 Sudoeste 17 Sudoeste 0 1000.5 -0.7 100
2020-01-08 03:00:00 6.8 10 Sudoeste 15 Sur 0 1000.7 -0.7 92
2020-01-08 02:00:00 6.5 9 Sudoeste 15 Sudoeste 0 1001 -0.7 97
2020-01-08 01:00:00 6.3 13 Sudoeste 18 Sudoeste 0 1001.2 -0.4 96
2020-01-08 00:00:00 6.4 10 Sudoeste 15 Sudoeste 0 1001.4 -0.2 95
2020-01-07 23:00:00 6.5 9 Sudoeste 17 Sudoeste 0 1001.7 0.1 99
2020-01-07 22:00:00 6.9 11 Sudoeste 28 Oeste 0 1001.6 0.2 100
2020-01-07 21:00:00 7.3 8 Sudoeste 13 Sudoeste 0 1001.6 0.6 96
2020-01-07 20:00:00 6.9 6 Oeste 15 Noroeste 0 1001.6 0.7 100
2020-01-07 19:00:00 7.5 6 Oeste -- -- 0 1001.4 0.5 100
2020-01-07 18:00:00 10 5 Oeste 18 Oeste 0 1001 0 90
2020-01-07 17:00:00 11 0 Calma 8 Sur 0 1000.9 -1 79
2020-01-07 16:00:00 10.1 7 Sur 13 Sudoeste 0 1000.9 -1.6 77
2020-01-07 15:00:00 8.3 12 Sudoeste 15 Sudoeste 0 1001 -1.9 84
2020-01-07 14:00:00 5.2 12 Sudoeste 17 Sudoeste 0 1001.9 -0.4 100
2020-01-07 13:00:00 3.5 13 Sudoeste 17 Sudoeste 0 1002.5 0.8 100
2020-01-07 12:00:00 2.6 12 Sur 17 Sudoeste 0 1002.9 1.6 100
2020-01-07 11:00:00 1.5 13 Sudoeste 22 Sur 0 1002.3 1 100
2020-01-07 10:00:00 0.6 16 Sudoeste 26 Sudoeste 0 1001.7 0.5 100
2020-01-07 09:00:00 0.3 14 Sudoeste 21 Sudoeste 0 1001.3 0.1 100
2020-01-07 08:00:00 0.5 12 Sudoeste 18 Sudoeste 0 1001.3 0.1 100
2020-01-07 07:00:00 1 13 Sudoeste 18 Sudoeste 0 1001.2 -0.2 100
2020-01-07 06:00:00 1.9 9 Sudoeste 15 Sudoeste 0 1001.2 0.2 100
2020-01-07 05:00:00 1.6 12 Sudoeste 15 Sudoeste 0 1001.2 0.4 100
2020-01-07 04:00:00 3.6 8 Sudoeste 13 Sudoeste 0 1001.4 0.4 100
2020-01-07 03:00:00 3.4 5 Sur 11 Sudoeste 0 1001 0.2 100
2020-01-07 02:00:00 4.3 5 Sur 11 Sur 0 1000.8 0.1 100
2020-01-07 01:00:00 4.7 8 Sudoeste 17 Sudoeste 0 1001 0.4 100
2020-01-07 00:00:00 4.6 12 Sudoeste 15 Sudoeste 0 1000.8 -0.1 100
2020-01-06 23:00:00 5.5 9 Sudoeste 24 Oeste 0 1000.7 0 100
2020-01-06 22:00:00 5.8 8 Sudoeste 11 Oeste 0 1000.6 0.2 100
2020-01-06 21:00:00 6.5 7 Sudoeste 17 Sudoeste 0 1000.9 0.8 99
2020-01-06 20:00:00 6.8 10 Sudoeste 11 Sudoeste 0 1000.7 1.4 100
2020-01-06 19:00:00 8.3 3 Noroeste 8 Oeste 0 1000.4 1.6 97
2020-01-06 18:00:00 8.9 0 Calma 8 Sudoeste 0 1000.1 1.5 97
2020-01-06 17:00:00 9.7 6 Sudoeste 11 Sudoeste 0 999.3 0 87
2020-01-06 16:00:00 9.1 8 Sudoeste 15 Sudoeste 0 998.8 -1.3 85
2020-01-06 15:00:00 7.4 12 Sur 17 Sudoeste 0 998.6 -1.7 90
2020-01-06 14:00:00 8.1 10 Sur 15 Sur 0 999.3 -0.6 88
2020-01-06 13:00:00 5 12 Sudoeste 22 Sudoeste 0 1000.1 0.9 99
2020-01-06 12:00:00 2.6 13 Sudoeste 17 Sudoeste 0 1000.3 1.7 100
2020-01-06 11:00:00 2.5 13 Sudoeste 17 Sudoeste 0 999.9 1.7 100
2020-01-06 10:00:00 2.9 11 Sudoeste 22 Sudoeste 0 999.2 1 100